EXI weather

Excursion Inlet Seaplane Base
Excursion Inlet, Alaska, United States

Public forecast

Using degrees Fahrenheit for public forecast. Weather courtesy of forecast.io.

Closest aviation weather report (METAR) to Excursion Inlet Seaplane Base

Closest report is Gustavus Airport, 8.1 nm (15.0 km) W. Retrieved 2020/05/25 19:04 UTC (49 minutes ago):

PAGS 251904Z AUTO 12006KT 10SM SCT017 BKN021 OVC095 09/06 A2996 RMK AO2

Closest aviation forecast (TAF) to Excursion Inlet Seaplane Base

Closest forecast is Gustavus Airport, 8.1 nm (15.0 km) W. Retrieved 2020/05/25 18:33 UTC (1 hour ago):

TAF PAGS 251730Z 2518/2618 12005KT P6SM -SHRA SCT009 OVC040 FM252000 16006KT P6SM VCSH SCT015 SCT025 OVC040 FM260700 VRB04KT P6SM VCSH BKN025 OVC040 AMD LTD TO CLD VIS AND WIND